sensor_id;sensor_type;location;lat;lon;timestamp;P1;P2;P0
37290;PMS5003;23175;-33.706;151.094;2023-05-16T00:00:57;5;5;
37290;PMS5003;23175;-33.706;151.094;2023-05-16T00:03:27;6;5;
37290;PMS5003;23175;-33.706;151.094;2023-05-16T00:05:57;5;5;
37290;PMS5003;23175;-33.706;151.094;2023-05-16T00:08:27;7;5;
37290;PMS5003;23175;-33.706;151.094;2023-05-16T00:10:58;7;6;
37290;PMS5003;23175;-33.706;151.094;2023-05-16T00:13:28;4;4;
37290;PMS5003;23175;-33.706;151.094;2023-05-16T00:15:58;7;5;
37290;PMS5003;23175;-33.706;151.094;2023-05-16T00:18:27;8;7;
37290;PMS5003;23175;-33.706;151.094;2023-05-16T00:20:58;5;5;
37290;PMS5003;23175;-33.706;151.094;2023-05-16T00:23:27;5;5;
37290;PMS5003;23175;-33.706;151.094;2023-05-16T00:25:58;7;7;
37290;PMS5003;23175;-33.706;151.094;2023-05-16T00:28:27;5;5;
37290;PMS5003;23175;-33.706;151.094;2023-05-16T00:30:58;7;7;
37290;PMS5003;23175;-33.706;151.094;2023-05-16T00:33:28;7;6;
37290;PMS5003;23175;-33.706;151.094;2023-05-16T00:35:58;7;7;
37290;PMS5003;23175;-33.706;151.094;2023-05-16T00:38:28;7;7;
37290;PMS5003;23175;-33.706;151.094;2023-05-16T00:40:58;6;5;
37290;PMS5003;23175;-33.706;151.094;2023-05-16T00:43:28;6;6;
37290;PMS5003;23175;-33.706;151.094;2023-05-16T00:45:58;5;5;
37290;PMS5003;23175;-33.706;151.094;2023-05-16T00:48:28;5;5;
37290;PMS5003;23175;-33.706;151.094;2023-05-16T00:50:59;4;4;
37290;PMS5003;23175;-33.706;151.094;2023-05-16T00:53:29;12;11;
37290;PMS5003;23175;-33.706;151.094;2023-05-16T00:55:59;6;5;
37290;PMS5003;23175;-33.706;151.094;2023-05-16T00:58:29;4;4;
37290;PMS5003;23175;-33.706;151.094;2023-05-16T01:01:00;4;4;
37290;PMS5003;23175;-33.706;151.094;2023-05-16T01:03:31;4;4;
37290;PMS5003;23175;-33.706;151.094;2023-05-16T01:06:00;9;8;
37290;PMS5003;23175;-33.706;151.094;2023-05-16T01:08:31;6;6;
37290;PMS5003;23175;-33.706;151.094;2023-05-16T01:11:05;6;6;
37290;PMS5003;23175;-33.706;151.094;2023-05-16T01:13:46;5;4;
37290;PMS5003;23175;-33.706;151.094;2023-05-16T01:16:25;6;4;
37290;PMS5003;23175;-33.706;151.094;2023-05-16T01:19:02;5;4;
37290;PMS5003;23175;-33.706;151.094;2023-05-16T01:21:43;6;6;
37290;PMS5003;23175;-33.706;151.094;2023-05-16T01:24:26;5;5;
37290;PMS5003;23175;-33.706;151.094;2023-05-16T01:27:00;4;3;
37290;PMS5003;23175;-33.706;151.094;2023-05-16T01:29:33;4;4;
37290;PMS5003;23175;-33.706;151.094;2023-05-16T01:32:03;5;5;
37290;PMS5003;23175;-33.706;151.094;2023-05-16T01:34:34;4;4;
37290;PMS5003;23175;-33.706;151.094;2023-05-16T01:37:05;6;6;
37290;PMS5003;23175;-33.706;151.094;2023-05-16T01:39:44;3;3;
37290;PMS5003;23175;-33.706;151.094;2023-05-16T01:42:21;6;6;
37290;PMS5003;23175;-33.706;151.094;2023-05-16T01:44:56;6;5;
37290;PMS5003;23175;-33.706;151.094;2023-05-16T01:47:34;7;7;
37290;PMS5003;23175;-33.706;151.094;2023-05-16T01:50:07;5;5;
37290;PMS5003;23175;-33.706;151.094;2023-05-16T01:52:41;7;5;
37290;PMS5003;23175;-33.706;151.094;2023-05-16T01:55:20;7;7;
37290;PMS5003;23175;-33.706;151.094;2023-05-16T01:57:56;7;7;
37290;PMS5003;23175;-33.706;151.094;2023-05-16T02:00:29;6;6;
37290;PMS5003;23175;-33.706;151.094;2023-05-16T02:03:00;7;7;
37290;PMS5003;23175;-33.706;151.094;2023-05-16T02:05:30;7;5;
37290;PMS5003;23175;-33.706;151.094;2023-05-16T02:08:01;6;6;
37290;PMS5003;23175;-33.706;151.094;2023-05-16T02:10:32;10;8;
37290;PMS5003;23175;-33.706;151.094;2023-05-16T02:13:02;7;6;
37290;PMS5003;23175;-33.706;151.094;2023-05-16T02:15:32;6;6;
37290;PMS5003;23175;-33.706;151.094;2023-05-16T02:18:03;8;8;
37290;PMS5003;23175;-33.706;151.094;2023-05-16T02:20:34;9;9;
37290;PMS5003;23175;-33.706;151.094;2023-05-16T02:23:05;6;6;
37290;PMS5003;23175;-33.706;151.094;2023-05-16T02:25:35;6;5;
37290;PMS5003;23175;-33.706;151.094;2023-05-16T02:28:05;10;10;
37290;PMS5003;23175;-33.706;151.094;2023-05-16T02:30:35;8;7;
37290;PMS5003;23175;-33.706;151.094;2023-05-16T02:33:04;8;8;
37290;PMS5003;23175;-33.706;151.094;2023-05-16T02:35:34;9;8;
37290;PMS5003;23175;-33.706;151.094;2023-05-16T02:38:04;7;7;
37290;PMS5003;23175;-33.706;151.094;2023-05-16T02:40:34;8;7;
37290;PMS5003;23175;-33.706;151.094;2023-05-16T02:43:03;6;6;
37290;PMS5003;23175;-33.706;151.094;2023-05-16T02:45:33;9;8;
37290;PMS5003;23175;-33.706;151.094;2023-05-16T02:48:03;7;7;
37290;PMS5003;23175;-33.706;151.094;2023-05-16T02:50:33;8;8;
37290;PMS5003;23175;-33.706;151.094;2023-05-16T02:53:04;5;5;
37290;PMS5003;23175;-33.706;151.094;2023-05-16T02:55:34;5;5;
37290;PMS5003;23175;-33.706;151.094;2023-05-16T02:58:04;6;6;
37290;PMS5003;23175;-33.706;151.094;2023-05-16T03:00:33;6;6;
37290;PMS5003;23175;-33.706;151.094;2023-05-16T03:03:03;8;8;
37290;PMS5003;23175;-33.706;151.094;2023-05-16T03:05:34;5;5;
37290;PMS5003;23175;-33.706;151.094;2023-05-16T03:08:04;8;8;
37290;PMS5003;23175;-33.706;151.094;2023-05-16T03:10:35;4;4;
37290;PMS5003;23175;-33.706;151.094;2023-05-16T03:13:04;7;7;
37290;PMS5003;23175;-33.706;151.094;2023-05-16T03:15:34;6;6;
37290;PMS5003;23175;-33.706;151.094;2023-05-16T03:18:04;6;5;
37290;PMS5003;23175;-33.706;151.094;2023-05-16T03:20:35;6;6;
37290;PMS5003;23175;-33.706;151.094;2023-05-16T03:23:05;4;4;
37290;PMS5003;23175;-33.706;151.094;2023-05-16T03:25:35;6;6;
37290;PMS5003;23175;-33.706;151.094;2023-05-16T03:28:05;4;4;
37290;PMS5003;23175;-33.706;151.094;2023-05-16T03:30:36;5;5;
37290;PMS5003;23175;-33.706;151.094;2023-05-16T03:33:06;4;4;
37290;PMS5003;23175;-33.706;151.094;2023-05-16T03:35:36;6;6;
37290;PMS5003;23175;-33.706;151.094;2023-05-16T03:38:06;4;4;
37290;PMS5003;23175;-33.706;151.094;2023-05-16T03:40:36;8;7;
37290;PMS5003;23175;-33.706;151.094;2023-05-16T03:43:06;5;5;
37290;PMS5003;23175;-33.706;151.094;2023-05-16T03:45:36;6;6;
37290;PMS5003;23175;-33.706;151.094;2023-05-16T03:48:06;3;3;
37290;PMS5003;23175;-33.706;151.094;2023-05-16T03:50:37;5;5;
37290;PMS5003;23175;-33.706;151.094;2023-05-16T03:53:07;4;4;
37290;PMS5003;23175;-33.706;151.094;2023-05-16T03:55:36;9;9;
37290;PMS5003;23175;-33.706;151.094;2023-05-16T03:58:06;7;6;
37290;PMS5003;23175;-33.706;151.094;2023-05-16T04:00:36;7;6;
37290;PMS5003;23175;-33.706;151.094;2023-05-16T04:03:06;5;5;
37290;PMS5003;23175;-33.706;151.094;2023-05-16T04:05:36;9;9;
37290;PMS5003;23175;-33.706;151.094;2023-05-16T04:08:06;6;6;
37290;PMS5003;23175;-33.706;151.094;2023-05-16T04:10:35;8;7;
37290;PMS5003;23175;-33.706;151.094;2023-05-16T04:13:05;9;9;
37290;PMS5003;23175;-33.706;151.094;2023-05-16T04:15:36;7;7;
37290;PMS5003;23175;-33.706;151.094;2023-05-16T04:18:06;5;5;
37290;PMS5003;23175;-33.706;151.094;2023-05-16T04:20:36;4;4;
37290;PMS5003;23175;-33.706;151.094;2023-05-16T04:23:05;7;7;
37290;PMS5003;23175;-33.706;151.094;2023-05-16T04:25:35;8;5;
37290;PMS5003;23175;-33.706;151.094;2023-05-16T04:28:06;7;7;
37290;PMS5003;23175;-33.706;151.094;2023-05-16T04:30:36;7;6;
37290;PMS5003;23175;-33.706;151.094;2023-05-16T04:33:07;8;8;
37290;PMS5003;23175;-33.706;151.094;2023-05-16T04:35:36;5;5;
37290;PMS5003;23175;-33.706;151.094;2023-05-16T04:38:06;5;5;
37290;PMS5003;23175;-33.706;151.094;2023-05-16T04:40:36;6;6;
37290;PMS5003;23175;-33.706;151.094;2023-05-16T04:43:05;9;8;
37290;PMS5003;23175;-33.706;151.094;2023-05-16T04:45:36;6;6;
37290;PMS5003;23175;-33.706;151.094;2023-05-16T04:48:06;6;6;
37290;PMS5003;23175;-33.706;151.094;2023-05-16T04:50:37;6;5;
37290;PMS5003;23175;-33.706;151.094;2023-05-16T04:53:07;6;5;
37290;PMS5003;23175;-33.706;151.094;2023-05-16T04:55:37;7;6;
37290;PMS5003;23175;-33.706;151.094;2023-05-16T04:58:06;5;5;
37290;PMS5003;23175;-33.706;151.094;2023-05-16T05:00:37;5;5;
37290;PMS5003;23175;-33.706;151.094;2023-05-16T05:03:07;6;6;
37290;PMS5003;23175;-33.706;151.094;2023-05-16T05:05:38;7;5;
37290;PMS5003;23175;-33.706;151.094;2023-05-16T05:08:08;5;4;
37290;PMS5003;23175;-33.706;151.094;2023-05-16T05:10:38;6;5;
37290;PMS5003;23175;-33.706;151.094;2023-05-16T05:13:09;6;6;
37290;PMS5003;23175;-33.706;151.094;2023-05-16T05:15:39;5;4;
37290;PMS5003;23175;-33.706;151.094;2023-05-16T05:18:10;4;4;
37290;PMS5003;23175;-33.706;151.094;2023-05-16T05:20:40;6;6;
37290;PMS5003;23175;-33.706;151.094;2023-05-16T05:23:11;6;6;
37290;PMS5003;23175;-33.706;151.094;2023-05-16T05:25:41;5;5;
37290;PMS5003;23175;-33.706;151.094;2023-05-16T05:28:11;5;5;
37290;PMS5003;23175;-33.706;151.094;2023-05-16T05:30:41;8;6;
37290;PMS5003;23175;-33.706;151.094;2023-05-16T05:33:13;5;5;
37290;PMS5003;23175;-33.706;151.094;2023-05-16T05:35:44;6;5;
37290;PMS5003;23175;-33.706;151.094;2023-05-16T05:38:15;5;3;
37290;PMS5003;23175;-33.706;151.094;2023-05-16T05:40:44;8;8;
37290;PMS5003;23175;-33.706;151.094;2023-05-16T05:43:14;5;5;
37290;PMS5003;23175;-33.706;151.094;2023-05-16T05:45:44;5;5;
37290;PMS5003;23175;-33.706;151.094;2023-05-16T05:48:13;6;6;
37290;PMS5003;23175;-33.706;151.094;2023-05-16T05:50:43;7;5;
37290;PMS5003;23175;-33.706;151.094;2023-05-16T05:53:13;4;4;
37290;PMS5003;23175;-33.706;151.094;2023-05-16T05:55:43;8;7;
37290;PMS5003;23175;-33.706;151.094;2023-05-16T05:58:14;4;4;
37290;PMS5003;23175;-33.706;151.094;2023-05-16T06:00:44;7;5;
37290;PMS5003;23175;-33.706;151.094;2023-05-16T06:03:15;3;3;
37290;PMS5003;23175;-33.706;151.094;2023-05-16T06:05:45;4;4;
37290;PMS5003;23175;-33.706;151.094;2023-05-16T06:08:16;5;5;
37290;PMS5003;23175;-33.706;151.094;2023-05-16T06:10:46;4;4;
37290;PMS5003;23175;-33.706;151.094;2023-05-16T06:13:16;7;5;
37290;PMS5003;23175;-33.706;151.094;2023-05-16T06:15:49;4;4;
37290;PMS5003;23175;-33.706;151.094;2023-05-16T06:18:19;7;5;
37290;PMS5003;23175;-33.706;151.094;2023-05-16T06:20:49;6;6;
37290;PMS5003;23175;-33.706;151.094;2023-05-16T06:23:21;5;5;
37290;PMS5003;23175;-33.706;151.094;2023-05-16T06:25:50;4;4;
37290;PMS5003;23175;-33.706;151.094;2023-05-16T06:28:21;6;5;
37290;PMS5003;23175;-33.706;151.094;2023-05-16T06:30:51;4;4;
37290;PMS5003;23175;-33.706;151.094;2023-05-16T06:33:20;4;4;
37290;PMS5003;23175;-33.706;151.094;2023-05-16T06:35:51;4;3;
37290;PMS5003;23175;-33.706;151.094;2023-05-16T06:38:21;5;5;
37290;PMS5003;23175;-33.706;151.094;2023-05-16T06:40:51;5;5;
37290;PMS5003;23175;-33.706;151.094;2023-05-16T06:43:21;9;6;
37290;PMS5003;23175;-33.706;151.094;2023-05-16T06:45:52;6;6;
37290;PMS5003;23175;-33.706;151.094;2023-05-16T06:48:22;4;4;
37290;PMS5003;23175;-33.706;151.094;2023-05-16T06:50:52;5;5;
37290;PMS5003;23175;-33.706;151.094;2023-05-16T06:53:27;4;4;
37290;PMS5003;23175;-33.706;151.094;2023-05-16T06:55:57;5;5;
37290;PMS5003;23175;-33.706;151.094;2023-05-16T06:58:27;5;5;
37290;PMS5003;23175;-33.706;151.094;2023-05-16T07:00:57;5;5;
37290;PMS5003;23175;-33.706;151.094;2023-05-16T07:03:27;7;6;
37290;PMS5003;23175;-33.706;151.094;2023-05-16T07:05:57;5;4;
37290;PMS5003;23175;-33.706;151.094;2023-05-16T07:08:26;4;4;
37290;PMS5003;23175;-33.706;151.094;2023-05-16T07:10:57;7;7;
37290;PMS5003;23175;-33.706;151.094;2023-05-16T07:13:27;4;4;
37290;PMS5003;23175;-33.706;151.094;2023-05-16T07:15:58;4;4;
37290;PMS5003;23175;-33.706;151.094;2023-05-16T07:18:27;5;5;
37290;PMS5003;23175;-33.706;151.094;2023-05-16T07:20:57;6;6;
37290;PMS5003;23175;-33.706;151.094;2023-05-16T07:23:27;8;8;
37290;PMS5003;23175;-33.706;151.094;2023-05-16T07:25:56;6;6;
37290;PMS5003;23175;-33.706;151.094;2023-05-16T07:28:27;10;8;
37290;PMS5003;23175;-33.706;151.094;2023-05-16T07:30:56;8;7;
37290;PMS5003;23175;-33.706;151.094;2023-05-16T07:33:27;8;7;
37290;PMS5003;23175;-33.706;151.094;2023-05-16T07:35:57;5;5;
37290;PMS5003;23175;-33.706;151.094;2023-05-16T07:38:27;8;8;
37290;PMS5003;23175;-33.706;151.094;2023-05-16T07:40:57;7;7;
37290;PMS5003;23175;-33.706;151.094;2023-05-16T07:43:27;5;5;
37290;PMS5003;23175;-33.706;151.094;2023-05-16T07:45:57;8;8;
37290;PMS5003;23175;-33.706;151.094;2023-05-16T07:48:27;6;6;
37290;PMS5003;23175;-33.706;151.094;2023-05-16T07:50:57;8;8;
37290;PMS5003;23175;-33.706;151.094;2023-05-16T07:53:27;8;8;
37290;PMS5003;23175;-33.706;151.094;2023-05-16T07:55:58;8;8;
37290;PMS5003;23175;-33.706;151.094;2023-05-16T07:58:28;9;9;
37290;PMS5003;23175;-33.706;151.094;2023-05-16T08:01:00;13;12;
37290;PMS5003;23175;-33.706;151.094;2023-05-16T08:03:30;11;11;
37290;PMS5003;23175;-33.706;151.094;2023-05-16T08:06:00;11;11;
37290;PMS5003;23175;-33.706;151.094;2023-05-16T08:08:30;14;13;
37290;PMS5003;23175;-33.706;151.094;2023-05-16T08:11:00;14;14;
37290;PMS5003;23175;-33.706;151.094;2023-05-16T08:13:31;15;13;
37290;PMS5003;23175;-33.706;151.094;2023-05-16T08:16:01;14;14;
37290;PMS5003;23175;-33.706;151.094;2023-05-16T08:18:32;12;10;
37290;PMS5003;23175;-33.706;151.094;2023-05-16T08:21:02;13;13;
37290;PMS5003;23175;-33.706;151.094;2023-05-16T08:23:34;13;11;
37290;PMS5003;23175;-33.706;151.094;2023-05-16T08:26:04;14;13;
37290;PMS5003;23175;-33.706;151.094;2023-05-16T08:28:34;13;12;
37290;PMS5003;23175;-33.706;151.094;2023-05-16T08:31:04;14;14;
37290;PMS5003;23175;-33.706;151.094;2023-05-16T08:33:34;9;9;
37290;PMS5003;23175;-33.706;151.094;2023-05-16T08:36:04;8;8;
37290;PMS5003;23175;-33.706;151.094;2023-05-16T08:38:36;11;9;
37290;PMS5003;23175;-33.706;151.094;2023-05-16T08:41:06;10;10;
37290;PMS5003;23175;-33.706;151.094;2023-05-16T08:43:36;11;11;
37290;PMS5003;23175;-33.706;151.094;2023-05-16T08:46:06;9;9;
37290;PMS5003;23175;-33.706;151.094;2023-05-16T08:48:37;10;10;
37290;PMS5003;23175;-33.706;151.094;2023-05-16T08:51:12;9;9;
37290;PMS5003;23175;-33.706;151.094;2023-05-16T08:53:48;9;9;
37290;PMS5003;23175;-33.706;151.094;2023-05-16T08:56:24;9;9;
37290;PMS5003;23175;-33.706;151.094;2023-05-16T08:58:55;11;11;
37290;PMS5003;23175;-33.706;151.094;2023-05-16T09:01:26;9;9;
37290;PMS5003;23175;-33.706;151.094;2023-05-16T09:03:56;11;10;
37290;PMS5003;23175;-33.706;151.094;2023-05-16T09:06:27;10;10;
37290;PMS5003;23175;-33.706;151.094;2023-05-16T09:08:57;10;9;
37290;PMS5003;23175;-33.706;151.094;2023-05-16T09:11:26;10;10;
37290;PMS5003;23175;-33.706;151.094;2023-05-16T09:13:58;11;10;
37290;PMS5003;23175;-33.706;151.094;2023-05-16T09:16:28;11;11;
37290;PMS5003;23175;-33.706;151.094;2023-05-16T09:19:00;10;10;
37290;PMS5003;23175;-33.706;151.094;2023-05-16T09:21:31;10;10;
37290;PMS5003;23175;-33.706;151.094;2023-05-16T09:24:02;7;7;
37290;PMS5003;23175;-33.706;151.094;2023-05-16T09:26:34;11;11;
37290;PMS5003;23175;-33.706;151.094;2023-05-16T09:29:10;11;11;
37290;PMS5003;23175;-33.706;151.094;2023-05-16T09:31:40;9;8;
37290;PMS5003;23175;-33.706;151.094;2023-05-16T09:34:11;10;9;
37290;PMS5003;23175;-33.706;151.094;2023-05-16T09:36:40;11;10;
37290;PMS5003;23175;-33.706;151.094;2023-05-16T09:39:11;9;9;
37290;PMS5003;23175;-33.706;151.094;2023-05-16T09:41:44;9;9;
37290;PMS5003;23175;-33.706;151.094;2023-05-16T09:44:19;14;12;
37290;PMS5003;23175;-33.706;151.094;2023-05-16T09:46:49;12;12;
37290;PMS5003;23175;-33.706;151.094;2023-05-16T09:49:22;12;10;
37290;PMS5003;23175;-33.706;151.094;2023-05-16T09:51:52;10;9;
37290;PMS5003;23175;-33.706;151.094;2023-05-16T09:54:33;11;11;
37290;PMS5003;23175;-33.706;151.094;2023-05-16T09:57:03;10;10;
37290;PMS5003;23175;-33.706;151.094;2023-05-16T09:59:35;8;8;
37290;PMS5003;23175;-33.706;151.094;2023-05-16T10:02:06;11;9;
37290;PMS5003;23175;-33.706;151.094;2023-05-16T10:04:37;12;10;
37290;PMS5003;23175;-33.706;151.094;2023-05-16T10:07:07;13;11;
37290;PMS5003;23175;-33.706;151.094;2023-05-16T10:09:38;9;9;
37290;PMS5003;23175;-33.706;151.094;2023-05-16T10:12:08;8;8;
37290;PMS5003;23175;-33.706;151.094;2023-05-16T10:14:42;11;10;
37290;PMS5003;23175;-33.706;151.094;2023-05-16T10:17:14;12;12;
37290;PMS5003;23175;-33.706;151.094;2023-05-16T10:19:45;11;11;
37290;PMS5003;23175;-33.706;151.094;2023-05-16T10:22:17;12;11;
37290;PMS5003;23175;-33.706;151.094;2023-05-16T10:24:51;14;12;
37290;PMS5003;23175;-33.706;151.094;2023-05-16T10:27:35;12;12;
37290;PMS5003;23175;-33.706;151.094;2023-05-16T10:30:06;10;10;
37290;PMS5003;23175;-33.706;151.094;2023-05-16T10:32:38;13;13;
37290;PMS5003;23175;-33.706;151.094;2023-05-16T10:35:09;12;12;
37290;PMS5003;23175;-33.706;151.094;2023-05-16T10:37:39;11;10;
37290;PMS5003;23175;-33.706;151.094;2023-05-16T10:40:10;12;11;
37290;PMS5003;23175;-33.706;151.094;2023-05-16T10:42:46;17;17;
37290;PMS5003;23175;-33.706;151.094;2023-05-16T10:45:24;15;15;
37290;PMS5003;23175;-33.706;151.094;2023-05-16T10:47:55;12;12;
37290;PMS5003;23175;-33.706;151.094;2023-05-16T10:50:34;13;13;
37290;PMS5003;23175;-33.706;151.094;2023-05-16T10:53:11;10;10;
37290;PMS5003;23175;-33.706;151.094;2023-05-16T10:55:49;14;14;
37290;PMS5003;23175;-33.706;151.094;2023-05-16T10:58:41;13;10;
37290;PMS5003;23175;-33.706;151.094;2023-05-16T11:01:17;12;12;
37290;PMS5003;23175;-33.706;151.094;2023-05-16T11:04:22;15;15;
37290;PMS5003;23175;-33.706;151.094;2023-05-16T11:07:12;12;12;
37290;PMS5003;23175;-33.706;151.094;2023-05-16T11:09:45;13;13;
37290;PMS5003;23175;-33.706;151.094;2023-05-16T11:12:35;15;15;
37290;PMS5003;23175;-33.706;151.094;2023-05-16T11:15:19;15;15;
37290;PMS5003;23175;-33.706;151.094;2023-05-16T11:18:03;12;12;
37290;PMS5003;23175;-33.706;151.094;2023-05-16T11:20:35;14;14;
37290;PMS5003;23175;-33.706;151.094;2023-05-16T11:23:20;17;15;
37290;PMS5003;23175;-33.706;151.094;2023-05-16T11:25:52;15;12;
37290;PMS5003;23175;-33.706;151.094;2023-05-16T11:28:24;19;19;
37290;PMS5003;23175;-33.706;151.094;2023-05-16T11:30:56;16;16;
37290;PMS5003;23175;-33.706;151.094;2023-05-16T11:33:26;14;14;
37290;PMS5003;23175;-33.706;151.094;2023-05-16T11:36:00;15;13;
37290;PMS5003;23175;-33.706;151.094;2023-05-16T11:38:31;17;17;
37290;PMS5003;23175;-33.706;151.094;2023-05-16T11:41:03;15;15;
37290;PMS5003;23175;-33.706;151.094;2023-05-16T11:43:39;15;15;
37290;PMS5003;23175;-33.706;151.094;2023-05-16T11:46:10;17;16;
37290;PMS5003;23175;-33.706;151.094;2023-05-16T11:48:42;16;16;
37290;PMS5003;23175;-33.706;151.094;2023-05-16T11:51:13;17;14;
37290;PMS5003;23175;-33.706;151.094;2023-05-16T11:53:46;17;17;
37290;PMS5003;23175;-33.706;151.094;2023-05-16T11:56:18;13;11;
37290;PMS5003;23175;-33.706;151.094;2023-05-16T11:58:49;19;19;
37290;PMS5003;23175;-33.706;151.094;2023-05-16T12:01:20;17;16;
37290;PMS5003;23175;-33.706;151.094;2023-05-16T12:03:54;14;13;
37290;PMS5003;23175;-33.706;151.094;2023-05-16T12:06:25;16;16;
37290;PMS5003;23175;-33.706;151.094;2023-05-16T12:08:55;15;15;
37290;PMS5003;23175;-33.706;151.094;2023-05-16T12:11:26;15;15;
37290;PMS5003;23175;-33.706;151.094;2023-05-16T12:13:56;20;19;
37290;PMS5003;23175;-33.706;151.094;2023-05-16T12:16:28;21;18;
37290;PMS5003;23175;-33.706;151.094;2023-05-16T12:18:59;19;17;
37290;PMS5003;23175;-33.706;151.094;2023-05-16T12:21:29;16;16;
37290;PMS5003;23175;-33.706;151.094;2023-05-16T12:24:00;25;21;
37290;PMS5003;23175;-33.706;151.094;2023-05-16T12:26:31;16;16;
37290;PMS5003;23175;-33.706;151.094;2023-05-16T12:29:01;19;16;
37290;PMS5003;23175;-33.706;151.094;2023-05-16T12:31:35;20;20;
37290;PMS5003;23175;-33.706;151.094;2023-05-16T12:34:18;15;14;
37290;PMS5003;23175;-33.706;151.094;2023-05-16T12:36:50;15;15;
37290;PMS5003;23175;-33.706;151.094;2023-05-16T12:39:21;20;18;
37290;PMS5003;23175;-33.706;151.094;2023-05-16T12:41:51;15;15;
37290;PMS5003;23175;-33.706;151.094;2023-05-16T12:44:21;17;17;
37290;PMS5003;23175;-33.706;151.094;2023-05-16T12:46:57;15;15;
37290;PMS5003;23175;-33.706;151.094;2023-05-16T12:49:29;14;13;
37290;PMS5003;23175;-33.706;151.094;2023-05-16T12:52:01;17;16;
37290;PMS5003;23175;-33.706;151.094;2023-05-16T12:54:31;14;13;
37290;PMS5003;23175;-33.706;151.094;2023-05-16T12:57:01;15;15;
37290;PMS5003;23175;-33.706;151.094;2023-05-16T12:59:33;17;15;
37290;PMS5003;23175;-33.706;151.094;2023-05-16T13:02:02;19;18;
37290;PMS5003;23175;-33.706;151.094;2023-05-16T13:04:33;17;17;
37290;PMS5003;23175;-33.706;151.094;2023-05-16T13:07:04;16;16;
37290;PMS5003;23175;-33.706;151.094;2023-05-16T13:09:34;22;19;
37290;PMS5003;23175;-33.706;151.094;2023-05-16T13:12:06;18;18;
37290;PMS5003;23175;-33.706;151.094;2023-05-16T13:14:37;20;19;
37290;PMS5003;23175;-33.706;151.094;2023-05-16T13:17:08;14;14;
37290;PMS5003;23175;-33.706;151.094;2023-05-16T13:19:38;20;20;
37290;PMS5003;23175;-33.706;151.094;2023-05-16T13:22:09;13;13;
37290;PMS5003;23175;-33.706;151.094;2023-05-16T13:24:40;14;14;
37290;PMS5003;23175;-33.706;151.094;2023-05-16T13:27:10;13;13;
37290;PMS5003;23175;-33.706;151.094;2023-05-16T13:29:44;15;13;
37290;PMS5003;23175;-33.706;151.094;2023-05-16T13:32:14;11;11;
37290;PMS5003;23175;-33.706;151.094;2023-05-16T13:34:44;10;10;
37290;PMS5003;23175;-33.706;151.094;2023-05-16T13:37:14;14;14;
37290;PMS5003;23175;-33.706;151.094;2023-05-16T13:39:44;12;11;
37290;PMS5003;23175;-33.706;151.094;2023-05-16T13:42:14;9;9;
37290;PMS5003;23175;-33.706;151.094;2023-05-16T13:44:45;11;11;
37290;PMS5003;23175;-33.706;151.094;2023-05-16T13:47:15;10;10;
37290;PMS5003;23175;-33.706;151.094;2023-05-16T13:49:46;12;12;
37290;PMS5003;23175;-33.706;151.094;2023-05-16T13:52:16;14;12;
37290;PMS5003;23175;-33.706;151.094;2023-05-16T13:54:48;12;9;
37290;PMS5003;23175;-33.706;151.094;2023-05-16T13:57:18;7;7;
37290;PMS5003;23175;-33.706;151.094;2023-05-16T13:59:50;10;8;
37290;PMS5003;23175;-33.706;151.094;2023-05-16T14:02:21;9;7;
37290;PMS5003;23175;-33.706;151.094;2023-05-16T14:04:50;10;8;
37290;PMS5003;23175;-33.706;151.094;2023-05-16T14:07:20;8;7;
37290;PMS5003;23175;-33.706;151.094;2023-05-16T14:09:51;7;7;
37290;PMS5003;23175;-33.706;151.094;2023-05-16T14:12:22;7;6;
37290;PMS5003;23175;-33.706;151.094;2023-05-16T14:14:53;3;3;
37290;PMS5003;23175;-33.706;151.094;2023-05-16T14:17:25;5;3;
37290;PMS5003;23175;-33.706;151.094;2023-05-16T14:19:55;7;7;
37290;PMS5003;23175;-33.706;151.094;2023-05-16T14:22:26;6;4;
37290;PMS5003;23175;-33.706;151.094;2023-05-16T14:24:58;7;6;
37290;PMS5003;23175;-33.706;151.094;2023-05-16T14:27:28;3;2;
37290;PMS5003;23175;-33.706;151.094;2023-05-16T14:29:58;3;3;
37290;PMS5003;23175;-33.706;151.094;2023-05-16T14:32:30;3;3;
37290;PMS5003;23175;-33.706;151.094;2023-05-16T14:35:00;5;4;
37290;PMS5003;23175;-33.706;151.094;2023-05-16T14:37:30;4;3;
37290;PMS5003;23175;-33.706;151.094;2023-05-16T14:40:00;3;3;
37290;PMS5003;23175;-33.706;151.094;2023-05-16T14:42:30;4;4;
37290;PMS5003;23175;-33.706;151.094;2023-05-16T14:45:00;3;2;
37290;PMS5003;23175;-33.706;151.094;2023-05-16T14:47:30;4;4;
37290;PMS5003;23175;-33.706;151.094;2023-05-16T14:50:01;6;3;
37290;PMS5003;23175;-33.706;151.094;2023-05-16T14:52:32;4;3;
37290;PMS5003;23175;-33.706;151.094;2023-05-16T14:55:02;2;2;
37290;PMS5003;23175;-33.706;151.094;2023-05-16T14:57:33;4;2;
37290;PMS5003;23175;-33.706;151.094;2023-05-16T15:00:03;5;4;
37290;PMS5003;23175;-33.706;151.094;2023-05-16T15:02:33;3;3;
37290;PMS5003;23175;-33.706;151.094;2023-05-16T15:05:03;5;4;
37290;PMS5003;23175;-33.706;151.094;2023-05-16T15:07:34;3;3;
37290;PMS5003;23175;-33.706;151.094;2023-05-16T15:10:05;4;3;
37290;PMS5003;23175;-33.706;151.094;2023-05-16T15:12:36;5;5;
37290;PMS5003;23175;-33.706;151.094;2023-05-16T15:15:08;5;3;
37290;PMS5003;23175;-33.706;151.094;2023-05-16T15:17:41;4;4;
37290;PMS5003;23175;-33.706;151.094;2023-05-16T15:20:11;6;4;
37290;PMS5003;23175;-33.706;151.094;2023-05-16T15:22:42;10;7;
37290;PMS5003;23175;-33.706;151.094;2023-05-16T15:25:12;2;2;
37290;PMS5003;23175;-33.706;151.094;2023-05-16T15:27:42;7;6;
37290;PMS5003;23175;-33.706;151.094;2023-05-16T15:30:12;4;3;
37290;PMS5003;23175;-33.706;151.094;2023-05-16T15:32:42;7;4;
37290;PMS5003;23175;-33.706;151.094;2023-05-16T15:35:13;7;4;
37290;PMS5003;23175;-33.706;151.094;2023-05-16T15:37:43;5;5;
37290;PMS5003;23175;-33.706;151.094;2023-05-16T15:40:13;4;4;
37290;PMS5003;23175;-33.706;151.094;2023-05-16T15:42:44;7;6;
37290;PMS5003;23175;-33.706;151.094;2023-05-16T15:45:14;3;3;
37290;PMS5003;23175;-33.706;151.094;2023-05-16T15:47:44;7;5;
37290;PMS5003;23175;-33.706;151.094;2023-05-16T15:50:14;6;5;
37290;PMS5003;23175;-33.706;151.094;2023-05-16T15:52:44;4;3;
37290;PMS5003;23175;-33.706;151.094;2023-05-16T15:55:14;7;5;
37290;PMS5003;23175;-33.706;151.094;2023-05-16T15:57:45;4;4;
37290;PMS5003;23175;-33.706;151.094;2023-05-16T16:00:17;9;5;
37290;PMS5003;23175;-33.706;151.094;2023-05-16T16:02:47;4;4;
37290;PMS5003;23175;-33.706;151.094;2023-05-16T16:05:20;5;4;
37290;PMS5003;23175;-33.706;151.094;2023-05-16T16:07:51;7;4;
37290;PMS5003;23175;-33.706;151.094;2023-05-16T16:10:22;6;3;
37290;PMS5003;23175;-33.706;151.094;2023-05-16T16:12:59;8;6;
37290;PMS5003;23175;-33.706;151.094;2023-05-16T16:15:31;8;6;
37290;PMS5003;23175;-33.706;151.094;2023-05-16T16:18:02;7;5;